sensor_id;sensor_type;location;lat;lon;timestamp;pressure;altitude;pressure_sealevel;temperature;humidity
40117;BME280;25829;50.228;18.936;2024-02-21T00:02:46;99227.50;;;4.85;78.77
40117;BME280;25829;50.228;18.936;2024-02-21T00:05:47;99209.59;;;4.73;78.00
40117;BME280;25829;50.228;18.936;2024-02-21T00:08:48;99220.75;;;4.57;78.27
40117;BME280;25829;50.228;18.936;2024-02-21T00:11:51;99233.88;;;4.47;78.69
40117;BME280;25829;50.228;18.936;2024-02-21T00:14:52;99232.06;;;4.48;79.16
40117;BME280;25829;50.228;18.936;2024-02-21T00:17:52;99228.66;;;4.47;78.85
40117;BME280;25829;50.228;18.936;2024-02-21T00:20:53;99224.75;;;4.51;79.04
40117;BME280;25829;50.228;18.936;2024-02-21T00:23:54;99233.28;;;4.53;79.36
40117;BME280;25829;50.228;18.936;2024-02-21T00:26:55;99227.91;;;4.55;78.49
40117;BME280;25829;50.228;18.936;2024-02-21T00:29:55;99227.72;;;4.56;78.96
40117;BME280;25829;50.228;18.936;2024-02-21T00:32:56;99219.06;;;4.56;78.92
40117;BME280;25829;50.228;18.936;2024-02-21T00:35:57;99214.84;;;4.55;79.06
40117;BME280;25829;50.228;18.936;2024-02-21T00:38:58;99200.13;;;4.54;79.36
40117;BME280;25829;50.228;18.936;2024-02-21T00:41:59;99206.19;;;4.54;79.09
40117;BME280;25829;50.228;18.936;2024-02-21T00:44:59;99201.47;;;4.58;79.08
40117;BME280;25829;50.228;18.936;2024-02-21T00:48:00;99201.16;;;4.61;78.83
40117;BME280;25829;50.228;18.936;2024-02-21T00:51:01;99199.22;;;4.63;78.83
40117;BME280;25829;50.228;18.936;2024-02-21T00:54:01;99202.66;;;4.63;78.97
40117;BME280;25829;50.228;18.936;2024-02-21T00:57:02;99196.59;;;4.63;78.89
40117;BME280;25829;50.228;18.936;2024-02-21T01:00:04;99196.59;;;4.63;78.57
40117;BME280;25829;50.228;18.936;2024-02-21T01:03:04;99199.38;;;4.61;78.36
40117;BME280;25829;50.228;18.936;2024-02-21T01:06:05;99203.91;;;4.59;78.82
40117;BME280;25829;50.228;18.936;2024-02-21T01:09:07;99193.13;;;4.54;78.67
40117;BME280;25829;50.228;18.936;2024-02-21T01:12:08;99194.09;;;4.53;79.19
40117;BME280;25829;50.228;18.936;2024-02-21T01:15:09;99185.28;;;4.54;79.16
40117;BME280;25829;50.228;18.936;2024-02-21T01:18:10;99184.28;;;4.55;79.07
40117;BME280;25829;50.228;18.936;2024-02-21T01:21:11;99187.06;;;4.54;78.78
40117;BME280;25829;50.228;18.936;2024-02-21T01:24:12;99179.88;;;4.56;79.04
40117;BME280;25829;50.228;18.936;2024-02-21T01:27:13;99179.06;;;4.55;79.28
40117;BME280;25829;50.228;18.936;2024-02-21T01:30:14;99176.63;;;4.54;79.11
40117;BME280;25829;50.228;18.936;2024-02-21T01:33:14;99186.09;;;4.55;79.13
40117;BME280;25829;50.228;18.936;2024-02-21T01:36:15;99179.88;;;4.56;79.25
40117;BME280;25829;50.228;18.936;2024-02-21T01:39:16;99178.75;;;4.58;79.25
40117;BME280;25829;50.228;18.936;2024-02-21T01:42:18;99173.38;;;4.60;79.11
40117;BME280;25829;50.228;18.936;2024-02-21T01:45:18;99172.41;;;4.61;79.44
40117;BME280;25829;50.228;18.936;2024-02-21T01:48:20;99163.75;;;4.60;78.94
40117;BME280;25829;50.228;18.936;2024-02-21T01:51:23;99163.09;;;4.58;79.21
40117;BME280;25829;50.228;18.936;2024-02-21T01:54:25;99154.72;;;4.55;79.26
40117;BME280;25829;50.228;18.936;2024-02-21T01:57:26;99162.72;;;4.53;79.27
40117;BME280;25829;50.228;18.936;2024-02-21T02:00:29;99165.34;;;4.53;79.18
40117;BME280;25829;50.228;18.936;2024-02-21T02:03:31;99153.22;;;4.52;79.06
40117;BME280;25829;50.228;18.936;2024-02-21T02:06:31;99149.66;;;4.53;79.01
40117;BME280;25829;50.228;18.936;2024-02-21T02:09:32;99152.06;;;4.47;79.14
40117;BME280;25829;50.228;18.936;2024-02-21T02:12:33;99152.50;;;4.42;79.05
40117;BME280;25829;50.228;18.936;2024-02-21T02:15:45;99147.28;;;4.42;79.25
40117;BME280;25829;50.228;18.936;2024-02-21T02:18:45;99149.88;;;4.42;79.56
40117;BME280;25829;50.228;18.936;2024-02-21T02:21:56;99141.22;;;4.41;78.99
40117;BME280;25829;50.228;18.936;2024-02-21T02:25:01;99149.88;;;4.42;79.23
40117;BME280;25829;50.228;18.936;2024-02-21T02:28:06;99134.22;;;4.42;78.97
40117;BME280;25829;50.228;18.936;2024-02-21T02:31:07;99136.97;;;4.40;79.33
40117;BME280;25829;50.228;18.936;2024-02-21T02:34:08;99133.69;;;4.38;78.68
40117;BME280;25829;50.228;18.936;2024-02-21T02:37:08;99125.50;;;4.33;79.11
40117;BME280;25829;50.228;18.936;2024-02-21T02:40:09;99126.78;;;4.29;79.50
40117;BME280;25829;50.228;18.936;2024-02-21T02:43:10;99126.91;;;4.28;79.66
40117;BME280;25829;50.228;18.936;2024-02-21T02:46:11;99128.53;;;4.29;79.55
40117;BME280;25829;50.228;18.936;2024-02-21T02:49:11;99131.03;;;4.30;79.89
40117;BME280;25829;50.228;18.936;2024-02-21T02:52:12;99123.88;;;4.32;79.95
40117;BME280;25829;50.228;18.936;2024-02-21T02:55:13;99122.72;;;4.35;79.56
40117;BME280;25829;50.228;18.936;2024-02-21T02:58:14;99125.34;;;4.35;79.72
40117;BME280;25829;50.228;18.936;2024-02-21T03:01:14;99118.47;;;4.34;79.74
40117;BME280;25829;50.228;18.936;2024-02-21T03:04:15;99128.25;;;4.32;79.50
40117;BME280;25829;50.228;18.936;2024-02-21T03:07:16;99118.78;;;4.31;79.70
40117;BME280;25829;50.228;18.936;2024-02-21T03:10:17;99121.03;;;4.26;79.59
40117;BME280;25829;50.228;18.936;2024-02-21T03:13:18;99117.38;;;4.19;79.60
40117;BME280;25829;50.228;18.936;2024-02-21T03:16:19;99112.97;;;4.19;80.00
40117;BME280;25829;50.228;18.936;2024-02-21T03:19:20;99112.69;;;4.22;80.27
40117;BME280;25829;50.228;18.936;2024-02-21T03:22:21;99114.84;;;4.27;80.11
40117;BME280;25829;50.228;18.936;2024-02-21T03:25:22;99109.44;;;4.28;79.79
40117;BME280;25829;50.228;18.936;2024-02-21T03:28:23;99104.09;;;4.30;79.76
40117;BME280;25829;50.228;18.936;2024-02-21T03:31:24;99099.16;;;4.27;79.65
40117;BME280;25829;50.228;18.936;2024-02-21T03:34:25;99101.91;;;4.25;79.58
40117;BME280;25829;50.228;18.936;2024-02-21T03:37:26;99104.97;;;4.21;79.73
40117;BME280;25829;50.228;18.936;2024-02-21T03:40:27;99112.00;;;4.20;79.90
40117;BME280;25829;50.228;18.936;2024-02-21T03:43:27;99108.41;;;4.21;79.76
40117;BME280;25829;50.228;18.936;2024-02-21T03:46:28;99104.53;;;4.25;80.00
40117;BME280;25829;50.228;18.936;2024-02-21T03:49:29;99110.25;;;4.29;79.97
40117;BME280;25829;50.228;18.936;2024-02-21T03:52:30;99109.97;;;4.32;80.00
40117;BME280;25829;50.228;18.936;2024-02-21T03:55:49;99106.22;;;4.34;80.02
40117;BME280;25829;50.228;18.936;2024-02-21T03:58:50;99098.25;;;4.36;80.17
40117;BME280;25829;50.228;18.936;2024-02-21T04:01:54;99097.94;;;4.39;79.50
40117;BME280;25829;50.228;18.936;2024-02-21T04:04:54;99102.03;;;4.41;79.41
40117;BME280;25829;50.228;18.936;2024-02-21T04:07:55;99104.00;;;4.39;79.53
40117;BME280;25829;50.228;18.936;2024-02-21T04:10:56;99105.63;;;4.40;80.08
40117;BME280;25829;50.228;18.936;2024-02-21T04:13:57;99093.22;;;4.43;79.96
40117;BME280;25829;50.228;18.936;2024-02-21T04:16:57;99092.09;;;4.45;79.41
40117;BME280;25829;50.228;18.936;2024-02-21T04:20:04;99085.09;;;4.46;78.93
40117;BME280;25829;50.228;18.936;2024-02-21T04:23:05;99098.09;;;4.37;79.08
40117;BME280;25829;50.228;18.936;2024-02-21T04:26:06;99100.19;;;4.34;79.43
40117;BME280;25829;50.228;18.936;2024-02-21T04:29:07;99096.59;;;4.35;79.92
40117;BME280;25829;50.228;18.936;2024-02-21T04:32:08;99093.84;;;4.36;79.56
40117;BME280;25829;50.228;18.936;2024-02-21T04:35:09;99091.06;;;4.38;79.36
40117;BME280;25829;50.228;18.936;2024-02-21T04:38:10;99096.97;;;4.40;80.00
40117;BME280;25829;50.228;18.936;2024-02-21T04:41:11;99100.91;;;4.44;79.57
40117;BME280;25829;50.228;18.936;2024-02-21T04:44:11;99087.69;;;4.46;79.29
40117;BME280;25829;50.228;18.936;2024-02-21T04:47:12;99090.16;;;4.47;79.81
40117;BME280;25829;50.228;18.936;2024-02-21T04:50:13;99079.72;;;4.47;79.66
40117;BME280;25829;50.228;18.936;2024-02-21T04:53:14;99078.38;;;4.43;79.11
40117;BME280;25829;50.228;18.936;2024-02-21T04:56:14;99074.88;;;4.34;79.37
40117;BME280;25829;50.228;18.936;2024-02-21T04:59:15;99073.56;;;4.30;79.54
40117;BME280;25829;50.228;18.936;2024-02-21T05:02:16;99069.31;;;4.29;79.50
40117;BME280;25829;50.228;18.936;2024-02-21T05:05:17;99061.47;;;4.29;79.82
40117;BME280;25829;50.228;18.936;2024-02-21T05:08:18;99047.06;;;4.25;79.89
40117;BME280;25829;50.228;18.936;2024-02-21T05:11:18;99051.78;;;4.22;79.77
40117;BME280;25829;50.228;18.936;2024-02-21T05:14:19;99057.31;;;4.19;79.41
40117;BME280;25829;50.228;18.936;2024-02-21T05:17:20;99056.63;;;4.16;79.66
40117;BME280;25829;50.228;18.936;2024-02-21T05:24:26;99053.66;;;4.11;79.57
40117;BME280;25829;50.228;18.936;2024-02-21T05:27:27;99049.28;;;4.12;79.55
40117;BME280;25829;50.228;18.936;2024-02-21T05:30:29;99043.16;;;4.03;79.20
40117;BME280;25829;50.228;18.936;2024-02-21T05:33:30;99058.97;;;4.02;79.37
40117;BME280;25829;50.228;18.936;2024-02-21T05:36:31;99048.66;;;4.00;79.50
40117;BME280;25829;50.228;18.936;2024-02-21T05:39:34;99052.94;;;4.01;79.58
40117;BME280;25829;50.228;18.936;2024-02-21T05:42:35;99041.66;;;4.01;79.69
40117;BME280;25829;50.228;18.936;2024-02-21T05:45:36;99047.03;;;3.99;79.72
40117;BME280;25829;50.228;18.936;2024-02-21T05:48:37;99051.56;;;3.97;79.69
40117;BME280;25829;50.228;18.936;2024-02-21T05:51:38;99048.03;;;3.98;79.76
40117;BME280;25829;50.228;18.936;2024-02-21T05:54:39;99051.16;;;4.02;79.47
40117;BME280;25829;50.228;18.936;2024-02-21T05:57:40;99047.38;;;4.04;79.88
40117;BME280;25829;50.228;18.936;2024-02-21T06:04:12;99058.44;;;4.16;79.48
40117;BME280;25829;50.228;18.936;2024-02-21T06:07:34;99050.44;;;4.17;79.76
40117;BME280;25829;50.228;18.936;2024-02-21T06:10:51;99043.78;;;4.23;79.74
40117;BME280;25829;50.228;18.936;2024-02-21T06:14:01;99046.25;;;4.25;79.41
40117;BME280;25829;50.228;18.936;2024-02-21T06:17:23;99044.00;;;4.30;79.68
40117;BME280;25829;50.228;18.936;2024-02-21T06:20:24;99042.72;;;4.34;79.83
40117;BME280;25829;50.228;18.936;2024-02-21T06:23:24;99049.16;;;4.39;79.80
40117;BME280;25829;50.228;18.936;2024-02-21T06:26:25;99043.44;;;4.44;79.45
40117;BME280;25829;50.228;18.936;2024-02-21T06:29:29;99050.81;;;4.49;79.89
40117;BME280;25829;50.228;18.936;2024-02-21T06:32:30;99054.91;;;4.51;79.49
40117;BME280;25829;50.228;18.936;2024-02-21T06:35:31;99048.41;;;4.55;79.69
40117;BME280;25829;50.228;18.936;2024-02-21T06:38:31;99043.84;;;4.57;79.65
40117;BME280;25829;50.228;18.936;2024-02-21T06:41:34;99037.47;;;4.60;79.59
40117;BME280;25829;50.228;18.936;2024-02-21T06:44:35;99041.06;;;4.59;79.50
40117;BME280;25829;50.228;18.936;2024-02-21T06:47:46;99039.28;;;4.59;79.61
40117;BME280;25829;50.228;18.936;2024-02-21T06:50:47;99035.03;;;4.58;79.22
40117;BME280;25829;50.228;18.936;2024-02-21T06:53:48;99045.66;;;4.57;79.41
40117;BME280;25829;50.228;18.936;2024-02-21T07:00:25;99041.59;;;4.62;79.49
40117;BME280;25829;50.228;18.936;2024-02-21T07:03:33;99043.75;;;4.67;79.50
40117;BME280;25829;50.228;18.936;2024-02-21T07:06:34;99046.88;;;4.71;79.52
40117;BME280;25829;50.228;18.936;2024-02-21T07:09:35;99046.41;;;4.75;79.69
40117;BME280;25829;50.228;18.936;2024-02-21T07:12:36;99046.53;;;4.74;79.21
40117;BME280;25829;50.228;18.936;2024-02-21T07:15:44;99044.25;;;4.71;78.95
40117;BME280;25829;50.228;18.936;2024-02-21T07:18:50;99046.03;;;4.70;79.52
40117;BME280;25829;50.228;18.936;2024-02-21T07:21:51;99041.13;;;4.67;79.20
40117;BME280;25829;50.228;18.936;2024-02-21T07:24:55;99050.44;;;4.70;79.55
40117;BME280;25829;50.228;18.936;2024-02-21T07:27:56;99035.56;;;4.70;79.30
40117;BME280;25829;50.228;18.936;2024-02-21T07:30:59;99037.88;;;4.73;79.41
40117;BME280;25829;50.228;18.936;2024-02-21T07:34:02;99030.84;;;4.74;79.45
40117;BME280;25829;50.228;18.936;2024-02-21T07:40:06;99020.78;;;4.79;79.24
40117;BME280;25829;50.228;18.936;2024-02-21T07:43:07;99030.75;;;4.83;79.42
40117;BME280;25829;50.228;18.936;2024-02-21T07:46:08;99020.78;;;4.87;79.44
40117;BME280;25829;50.228;18.936;2024-02-21T07:49:08;99019.34;;;4.93;78.84
40117;BME280;25829;50.228;18.936;2024-02-21T07:52:09;99023.16;;;4.98;79.39
40117;BME280;25829;50.228;18.936;2024-02-21T07:55:10;99023.97;;;5.07;79.27
40117;BME280;25829;50.228;18.936;2024-02-21T07:58:11;99016.00;;;5.17;79.60
40117;BME280;25829;50.228;18.936;2024-02-21T08:01:18;99010.97;;;5.23;78.91
40117;BME280;25829;50.228;18.936;2024-02-21T08:04:23;99005.09;;;5.29;79.36
40117;BME280;25829;50.228;18.936;2024-02-21T08:07:23;98997.56;;;5.43;79.40
40117;BME280;25829;50.228;18.936;2024-02-21T08:10:24;98992.56;;;5.57;79.41
40117;BME280;25829;50.228;18.936;2024-02-21T08:13:28;98990.41;;;5.69;78.93
40117;BME280;25829;50.228;18.936;2024-02-21T08:16:29;98993.38;;;5.82;78.64
40117;BME280;25829;50.228;18.936;2024-02-21T08:19:32;98990.31;;;5.95;78.35
40117;BME280;25829;50.228;18.936;2024-02-21T08:22:32;98994.34;;;6.14;78.64
40117;BME280;25829;50.228;18.936;2024-02-21T08:25:33;98979.91;;;6.35;78.12
40117;BME280;25829;50.228;18.936;2024-02-21T08:28:37;98982.00;;;6.55;77.38
40117;BME280;25829;50.228;18.936;2024-02-21T08:31:38;98977.50;;;6.72;76.81
40117;BME280;25829;50.228;18.936;2024-02-21T08:34:39;98982.06;;;6.78;76.25
40117;BME280;25829;50.228;18.936;2024-02-21T08:37:40;98973.50;;;6.85;76.39
40117;BME280;25829;50.228;18.936;2024-02-21T08:40:40;98977.59;;;6.87;75.03
40117;BME280;25829;50.228;18.936;2024-02-21T08:43:44;98973.84;;;6.82;75.02
40117;BME280;25829;50.228;18.936;2024-02-21T08:46:45;98974.50;;;6.84;75.71
40117;BME280;25829;50.228;18.936;2024-02-21T08:49:47;98958.94;;;6.82;74.51
40117;BME280;25829;50.228;18.936;2024-02-21T08:52:48;98956.47;;;6.81;75.18
40117;BME280;25829;50.228;18.936;2024-02-21T08:55:49;98950.38;;;6.88;75.20
40117;BME280;25829;50.228;18.936;2024-02-21T08:58:50;98952.97;;;6.96;75.55
40117;BME280;25829;50.228;18.936;2024-02-21T09:01:51;98948.34;;;6.98;74.66
40117;BME280;25829;50.228;18.936;2024-02-21T09:04:52;98931.41;;;7.09;74.40
40117;BME280;25829;50.228;18.936;2024-02-21T09:07:53;98936.41;;;7.27;74.38
40117;BME280;25829;50.228;18.936;2024-02-21T09:10:56;98937.91;;;7.44;73.09
40117;BME280;25829;50.228;18.936;2024-02-21T09:13:57;98951.63;;;7.55;72.96
40117;BME280;25829;50.228;18.936;2024-02-21T09:16:58;98947.00;;;7.57;72.90
40117;BME280;25829;50.228;18.936;2024-02-21T09:19:59;98951.09;;;7.59;71.93
40117;BME280;25829;50.228;18.936;2024-02-21T09:26:46;98942.78;;;7.70;72.08
40117;BME280;25829;50.228;18.936;2024-02-21T09:29:47;98947.00;;;7.80;70.68
40117;BME280;25829;50.228;18.936;2024-02-21T09:32:51;98950.72;;;7.85;71.45
40117;BME280;25829;50.228;18.936;2024-02-21T09:35:52;98939.16;;;7.94;70.77
40117;BME280;25829;50.228;18.936;2024-02-21T09:38:53;98944.31;;;8.03;70.49
40117;BME280;25829;50.228;18.936;2024-02-21T09:46:07;98951.69;;;8.22;69.60
40117;BME280;25829;50.228;18.936;2024-02-21T09:49:34;98955.88;;;8.31;68.93
40117;BME280;25829;50.228;18.936;2024-02-21T09:52:36;98957.31;;;8.34;68.93
40117;BME280;25829;50.228;18.936;2024-02-21T09:55:39;98949.88;;;8.37;69.28
40117;BME280;25829;50.228;18.936;2024-02-21T09:58:43;98946.53;;;8.43;69.56
40117;BME280;25829;50.228;18.936;2024-02-21T10:01:44;98941.56;;;8.49;68.83
40117;BME280;25829;50.228;18.936;2024-02-21T10:04:47;98952.34;;;8.54;69.27
40117;BME280;25829;50.228;18.936;2024-02-21T10:07:48;98947.53;;;8.57;69.12
40117;BME280;25829;50.228;18.936;2024-02-21T10:10:50;98947.16;;;8.60;68.33
40117;BME280;25829;50.228;18.936;2024-02-21T10:14:25;98946.59;;;8.65;68.58
40117;BME280;25829;50.228;18.936;2024-02-21T10:17:26;98940.16;;;8.67;68.97
40117;BME280;25829;50.228;18.936;2024-02-21T10:20:27;98936.94;;;8.65;67.45
40117;BME280;25829;50.228;18.936;2024-02-21T10:23:28;98938.00;;;8.56;66.80
40117;BME280;25829;50.228;18.936;2024-02-21T10:26:35;98927.22;;;8.51;67.98
40117;BME280;25829;50.228;18.936;2024-02-21T10:29:38;98927.13;;;8.59;67.97
40117;BME280;25829;50.228;18.936;2024-02-21T10:36:29;98931.66;;;8.65;67.05
40117;BME280;25829;50.228;18.936;2024-02-21T10:39:41;98929.56;;;8.76;66.91
40117;BME280;25829;50.228;18.936;2024-02-21T10:42:42;98920.91;;;8.82;66.55
40117;BME280;25829;50.228;18.936;2024-02-21T10:45:44;98917.91;;;8.85;66.40
40117;BME280;25829;50.228;18.936;2024-02-21T10:49:10;98909.41;;;8.83;65.46
40117;BME280;25829;50.228;18.936;2024-02-21T10:52:21;98905.50;;;8.79;64.19
40117;BME280;25829;50.228;18.936;2024-02-21T10:55:37;98905.63;;;8.71;64.32
40117;BME280;25829;50.228;18.936;2024-02-21T10:58:40;98906.78;;;8.68;64.67
40117;BME280;25829;50.228;18.936;2024-02-21T11:01:42;98901.16;;;8.71;64.13
40117;BME280;25829;50.228;18.936;2024-02-21T11:04:43;98906.19;;;8.66;64.19
40117;BME280;25829;50.228;18.936;2024-02-21T11:07:53;98901.09;;;8.64;64.22
40117;BME280;25829;50.228;18.936;2024-02-21T11:10:58;98890.41;;;8.66;64.87
40117;BME280;25829;50.228;18.936;2024-02-21T11:14:20;98881.50;;;8.67;63.46
40117;BME280;25829;50.228;18.936;2024-02-21T11:17:21;98880.97;;;8.57;63.86
40117;BME280;25829;50.228;18.936;2024-02-21T11:20:36;98873.88;;;8.57;64.36
40117;BME280;25829;50.228;18.936;2024-02-21T11:24:28;98864.81;;;8.60;64.53
40117;BME280;25829;50.228;18.936;2024-02-21T11:27:48;98855.31;;;8.59;64.04
40117;BME280;25829;50.228;18.936;2024-02-21T11:34:17;98863.72;;;8.54;63.62
40117;BME280;25829;50.228;18.936;2024-02-21T11:37:36;98859.28;;;8.55;64.11
40117;BME280;25829;50.228;18.936;2024-02-21T11:40:41;98855.84;;;8.54;64.45
40117;BME280;25829;50.228;18.936;2024-02-21T11:43:42;98857.06;;;8.52;63.87
40117;BME280;25829;50.228;18.936;2024-02-21T11:47:01;98855.75;;;8.48;64.38
40117;BME280;25829;50.228;18.936;2024-02-21T11:50:04;98850.63;;;8.39;64.62
40117;BME280;25829;50.228;18.936;2024-02-21T11:53:05;98848.00;;;8.39;65.39
40117;BME280;25829;50.228;18.936;2024-02-21T11:56:06;98849.63;;;8.40;65.33
40117;BME280;25829;50.228;18.936;2024-02-21T11:59:06;98844.84;;;8.29;65.11
40117;BME280;25829;50.228;18.936;2024-02-21T12:02:09;98850.66;;;8.25;65.22
40117;BME280;25829;50.228;18.936;2024-02-21T12:05:10;98841.50;;;8.20;65.66
40117;BME280;25829;50.228;18.936;2024-02-21T12:08:11;98848.94;;;8.17;65.85
40117;BME280;25829;50.228;18.936;2024-02-21T12:11:19;98834.34;;;8.14;66.25
40117;BME280;25829;50.228;18.936;2024-02-21T12:14:25;98842.22;;;8.14;66.58
40117;BME280;25829;50.228;18.936;2024-02-21T12:17:26;98842.31;;;8.06;66.56
40117;BME280;25829;50.228;18.936;2024-02-21T12:20:26;98834.81;;;8.03;66.56
40117;BME280;25829;50.228;18.936;2024-02-21T12:23:27;98834.53;;;7.98;66.14
40117;BME280;25829;50.228;18.936;2024-02-21T12:26:28;98833.63;;;7.91;66.98
40117;BME280;25829;50.228;18.936;2024-02-21T12:29:32;98824.13;;;7.90;67.66
40117;BME280;25829;50.228;18.936;2024-02-21T12:32:35;98837.88;;;7.92;68.35
40117;BME280;25829;50.228;18.936;2024-02-21T12:35:36;98829.53;;;7.88;69.02
40117;BME280;25829;50.228;18.936;2024-02-21T12:38:37;98823.66;;;7.86;68.69
40117;BME280;25829;50.228;18.936;2024-02-21T12:41:50;98823.94;;;7.77;69.30
40117;BME280;25829;50.228;18.936;2024-02-21T12:44:54;98817.44;;;7.64;69.06
40117;BME280;25829;50.228;18.936;2024-02-21T12:47:55;98819.97;;;7.58;69.93
40117;BME280;25829;50.228;18.936;2024-02-21T12:50:59;98820.34;;;7.55;69.78
40117;BME280;25829;50.228;18.936;2024-02-21T12:54:00;98817.88;;;7.53;70.79
40117;BME280;25829;50.228;18.936;2024-02-21T12:57:01;98815.09;;;7.55;70.99
40117;BME280;25829;50.228;18.936;2024-02-21T13:00:05;98809.31;;;7.59;71.28
40117;BME280;25829;50.228;18.936;2024-02-21T13:03:12;98806.22;;;7.56;71.36
40117;BME280;25829;50.228;18.936;2024-02-21T13:06:19;98799.06;;;7.49;70.89
40117;BME280;25829;50.228;18.936;2024-02-21T13:09:40;98783.19;;;7.43;71.06
40117;BME280;25829;50.228;18.936;2024-02-21T13:12:46;98789.16;;;7.37;71.49
40117;BME280;25829;50.228;18.936;2024-02-21T13:15:47;98778.31;;;7.40;71.44
40117;BME280;25829;50.228;18.936;2024-02-21T13:18:50;98781.75;;;7.40;72.03
40117;BME280;25829;50.228;18.936;2024-02-21T13:21:50;98770.97;;;7.35;71.50
40117;BME280;25829;50.228;18.936;2024-02-21T13:24:51;98771.22;;;7.25;71.82
40117;BME280;25829;50.228;18.936;2024-02-21T13:27:52;98762.75;;;7.23;72.31
40117;BME280;25829;50.228;18.936;2024-02-21T13:31:05;98765.63;;;7.29;72.57
40117;BME280;25829;50.228;18.936;2024-02-21T13:34:06;98763.47;;;7.32;72.90
40117;BME280;25829;50.228;18.936;2024-02-21T13:37:07;98760.19;;;7.30;72.75
40117;BME280;25829;50.228;18.936;2024-02-21T13:40:10;98751.50;;;7.30;72.39
40117;BME280;25829;50.228;18.936;2024-02-21T13:43:11;98752.25;;;7.23;72.50
40117;BME280;25829;50.228;18.936;2024-02-21T13:46:15;98746.16;;;7.23;72.38
40117;BME280;25829;50.228;18.936;2024-02-21T13:49:17;98752.41;;;7.22;72.73
40117;BME280;25829;50.228;18.936;2024-02-21T13:52:55;98754.88;;;7.23;72.85
40117;BME280;25829;50.228;18.936;2024-02-21T13:55:56;98752.41;;;7.22;72.83
40117;BME280;25829;50.228;18.936;2024-02-21T13:58:58;98748.31;;;7.19;72.92
40117;BME280;25829;50.228;18.936;2024-02-21T14:02:00;98741.63;;;7.17;72.67
40117;BME280;25829;50.228;18.936;2024-02-21T14:05:01;98737.09;;;7.11;72.50
40117;BME280;25829;50.228;18.936;2024-02-21T14:08:11;98730.41;;;7.08;72.93
40117;BME280;25829;50.228;18.936;2024-02-21T14:11:11;98728.31;;;7.03;73.25
40117;BME280;25829;50.228;18.936;2024-02-21T14:14:13;98725.03;;;7.01;73.30
40117;BME280;25829;50.228;18.936;2024-02-21T14:17:15;98713.94;;;6.99;73.55
40117;BME280;25829;50.228;18.936;2024-02-21T14:20:16;98707.38;;;6.95;73.17
40117;BME280;25829;50.228;18.936;2024-02-21T14:23:26;98700.50;;;6.94;73.51
40117;BME280;25829;50.228;18.936;2024-02-21T14:26:33;98703.50;;;6.91;73.17
40117;BME280;25829;50.228;18.936;2024-02-21T14:29:34;98700.06;;;6.91;73.49
40117;BME280;25829;50.228;18.936;2024-02-21T14:32:38;98697.28;;;6.92;73.17
40117;BME280;25829;50.228;18.936;2024-02-21T14:35:38;98690.91;;;6.87;72.96
40117;BME280;25829;50.228;18.936;2024-02-21T14:38:39;98678.50;;;6.81;73.33
40117;BME280;25829;50.228;18.936;2024-02-21T14:41:54;98674.88;;;6.82;73.08
40117;BME280;25829;50.228;18.936;2024-02-21T14:44:55;98658.44;;;6.73;72.54
40117;BME280;25829;50.228;18.936;2024-02-21T14:48:07;98656.16;;;6.70;72.75
40117;BME280;25829;50.228;18.936;2024-02-21T14:51:17;98660.88;;;6.74;73.18
40117;BME280;25829;50.228;18.936;2024-02-21T14:54:17;98661.41;;;6.70;72.25
40117;BME280;25829;50.228;18.936;2024-02-21T14:57:24;98668.47;;;6.69;72.52
40117;BME280;25829;50.228;18.936;2024-02-21T15:00:28;98661.94;;;6.65;71.97
40117;BME280;25829;50.228;18.936;2024-02-21T15:03:35;98667.34;;;6.64;72.27
40117;BME280;25829;50.228;18.936;2024-02-21T15:07:01;98662.91;;;6.64;72.24
40117;BME280;25829;50.228;18.936;2024-02-21T15:10:02;98674.41;;;6.63;72.11
40117;BME280;25829;50.228;18.936;2024-02-21T15:13:04;98665.72;;;6.63;71.81
40117;BME280;25829;50.228;18.936;2024-02-21T15:16:05;98671.44;;;6.66;72.54
40117;BME280;25829;50.228;18.936;2024-02-21T15:19:06;98673.50;;;6.71;72.17
40117;BME280;25829;50.228;18.936;2024-02-21T15:22:07;98659.44;;;6.72;71.54
40117;BME280;25829;50.228;18.936;2024-02-21T15:25:07;98652.84;;;6.76;71.54
40117;BME280;25829;50.228;18.936;2024-02-21T15:28:19;98656.00;;;6.71;71.51
40117;BME280;25829;50.228;18.936;2024-02-21T15:31:23;98650.56;;;6.73;71.38
40117;BME280;25829;50.228;18.936;2024-02-21T15:34:33;98647.59;;;6.76;71.73
40117;BME280;25829;50.228;18.936;2024-02-21T15:37:34;98643.63;;;6.80;71.49
40117;BME280;25829;50.228;18.936;2024-02-21T15:40:34;98628.06;;;6.78;71.32
40117;BME280;25829;50.228;18.936;2024-02-21T15:44:04;98629.34;;;6.83;71.07
40117;BME280;25829;50.228;18.936;2024-02-21T15:47:10;98632.78;;;6.83;71.68
40117;BME280;25829;50.228;18.936;2024-02-21T15:54:34;98635.19;;;6.70;71.30
40117;BME280;25829;50.228;18.936;2024-02-21T15:57:43;98635.38;;;6.68;71.08
40117;BME280;25829;50.228;18.936;2024-02-21T16:00:44;98626.22;;;6.64;71.22
40117;BME280;25829;50.228;18.936;2024-02-21T16:03:45;98635.78;;;6.57;71.23
40117;BME280;25829;50.228;18.936;2024-02-21T16:06:46;98631.28;;;6.51;71.03
40117;BME280;25829;50.228;18.936;2024-02-21T16:10:23;98630.69;;;6.41;71.33
40117;BME280;25829;50.228;18.936;2024-02-21T16:13:24;98625.50;;;6.32;71.33
40117;BME280;25829;50.228;18.936;2024-02-21T16:16:26;98630.81;;;6.24;71.82
40117;BME280;25829;50.228;18.936;2024-02-21T16:19:26;98625.78;;;6.23;72.12
40117;BME280;25829;50.228;18.936;2024-02-21T16:22:37;98619.88;;;6.21;71.67
40117;BME280;25829;50.228;18.936;2024-02-21T16:25:38;98609.28;;;6.14;71.46
40117;BME280;25829;50.228;18.936;2024-02-21T16:28:38;98609.28;;;6.14;72.14
40117;BME280;25829;50.228;18.936;2024-02-21T16:31:39;98616.94;;;6.16;71.80
40117;BME280;25829;50.228;18.936;2024-02-21T16:34:40;98608.28;;;6.15;72.02
40117;BME280;25829;50.228;18.936;2024-02-21T16:37:41;98627.63;;;6.14;72.46
40117;BME280;25829;50.228;18.936;2024-02-21T16:40:44;98615.69;;;6.12;72.68
40117;BME280;25829;50.228;18.936;2024-02-21T16:43:49;98616.50;;;6.12;71.66
40117;BME280;25829;50.228;18.936;2024-02-21T16:50:01;98605.44;;;6.02;71.92